Time;durP1;ratioP1;P1;durP2;ratioP2;P2;SDS_P1;SDS_P2;PMS_P1;PMS_P2;Temp;Humidity;BMP_temperature;BMP_pressure;BME280_temperature;BME280_humidity;BME280_pressure;Samples;Min_cycle;Max_cycle;Signal;HPM_P1;HPM_P2
2023/12/22 00:00:21;;;;;;;9.23;3.15;;;10.50;99.90;;;;;;4982998;28;20074;-85
2023/12/22 00:02:48;;;;;;;6.72;2.83;;;10.50;99.90;;;;;;4974520;28;20062;-86
2023/12/22 00:05:14;;;;;;;8.60;2.78;;;10.50;99.90;;;;;;4971997;28;20050;-85
2023/12/22 00:07:41;;;;;;;5.28;2.45;;;10.50;85.90;;;;;;4969176;28;20114;-85
2023/12/22 00:10:09;;;;;;;10.82;3.53;;;10.50;88.90;;;;;;4969278;28;20059;-85
2023/12/22 00:12:38;;;;;;;9.40;3.00;;;10.40;87.40;;;;;;4970261;28;20057;-85
2023/12/22 00:15:06;;;;;;;11.50;4.22;;;10.40;85.10;;;;;;4988021;28;20066;-85
2023/12/22 00:17:32;;;;;;;9.73;3.72;;;10.40;99.00;;;;;;4986305;28;20395;-84
2023/12/22 00:20:02;;;;;;;8.65;3.28;;;10.40;90.50;;;;;;4988224;28;20089;-85
2023/12/22 00:22:30;;;;;;;10.40;3.20;;;10.40;98.40;;;;;;4984235;28;20066;-85
2023/12/22 00:24:57;;;;;;;13.20;4.03;;;10.30;91.50;;;;;;4985295;28;20220;-85
2023/12/22 00:27:24;;;;;;;13.32;4.32;;;10.30;83.40;;;;;;4986040;28;20109;-85
2023/12/22 00:29:50;;;;;;;7.07;3.10;;;10.30;90.00;;;;;;4986076;28;20113;-85
2023/12/22 00:32:17;;;;;;;7.95;3.25;;;10.40;80.50;;;;;;4984359;28;20058;-84
2023/12/22 00:34:44;;;;;;;12.52;3.17;;;10.40;68.40;;;;;;4966880;28;20145;-85
2023/12/22 00:37:12;;;;;;;10.23;3.33;;;10.40;64.90;;;;;;4967563;28;20508;-85
2023/12/22 00:39:39;;;;;;;10.25;2.95;;;10.40;65.70;;;;;;4967261;28;20077;-84
2023/12/22 00:42:06;;;;;;;7.80;2.67;;;10.40;62.80;;;;;;4966847;28;20047;-83
2023/12/22 00:44:33;;;;;;;8.68;2.92;;;10.40;67.50;;;;;;4950217;28;20092;-83
2023/12/22 00:47:00;;;;;;;6.30;2.38;;;10.40;69.70;;;;;;4966332;28;20205;-84
2023/12/22 00:49:27;;;;;;;9.23;2.65;;;10.40;88.00;;;;;;4967440;28;20053;-85
2023/12/22 00:51:54;;;;;;;5.97;2.10;;;10.40;99.90;;;;;;4967635;28;20270;-84
2023/12/22 00:54:21;;;;;;;7.50;2.70;;;10.40;97.00;;;;;;4967969;28;20070;-84
2023/12/22 00:56:47;;;;;;;6.88;2.22;;;10.40;52.70;;;;;;4967377;28;20062;-84
2023/12/22 00:59:14;;;;;;;9.18;2.85;;;10.40;58.70;;;;;;4968057;28;20466;-84
2023/12/22 01:01:41;;;;;;;10.10;2.70;;;10.50;98.00;;;;;;4964389;28;20149;-84
2023/12/22 01:04:08;;;;;;;9.25;2.45;;;10.50;99.90;;;;;;4961970;28;20047;-84
2023/12/22 01:06:38;;;;;;;4.82;2.35;;;10.50;77.80;;;;;;4947793;28;20138;-84
2023/12/22 01:09:06;;;;;;;5.85;1.85;;;10.60;85.50;;;;;;4933411;29;20106;-83
2023/12/22 01:11:33;;;;;;;5.25;2.10;;;10.50;48.60;;;;;;4948559;28;20043;-84
2023/12/22 01:14:00;;;;;;;7.07;2.17;;;10.60;57.90;;;;;;4962618;28;20097;-84
2023/12/22 01:16:26;;;;;;;7.15;2.00;;;10.60;95.60;;;;;;4965341;28;20158;-84
2023/12/22 01:18:53;;;;;;;5.30;2.13;;;10.60;66.90;;;;;;4965462;28;20447;-84
2023/12/22 01:21:21;;;;;;;3.50;1.50;;;10.70;90.70;;;;;;4967354;28;20085;-84
2023/12/22 01:23:48;;;;;;;3.30;1.50;;;10.70;44.10;;;;;;4966636;28;20134;-84
2023/12/22 01:26:15;;;;;;;3.63;1.58;;;10.70;87.40;;;;;;4964719;28;20557;-84
2023/12/22 01:28:42;;;;;;;4.72;1.98;;;10.70;87.60;;;;;;4963490;28;20042;-83
2023/12/22 01:31:09;;;;;;;3.47;1.77;;;10.70;93.70;;;;;;4970248;28;20474;-88
2023/12/22 01:33:36;;;;;;;4.75;1.75;;;10.80;87.80;;;;;;4973206;28;20059;-89
2023/12/22 01:36:03;;;;;;;7.63;1.92;;;10.80;62.30;;;;;;4972979;28;20092;-89
2023/12/22 01:38:29;;;;;;;3.33;1.23;;;10.80;42.50;;;;;;4972570;28;20055;-89
2023/12/22 01:40:56;;;;;;;3.58;1.60;;;10.90;58.30;;;;;;4971680;28;20483;-89
2023/12/22 01:43:23;;;;;;;6.47;1.90;;;10.90;57.10;;;;;;4973384;28;20099;-90
2023/12/22 01:45:52;;;;;;;5.43;1.50;;;10.90;74.00;;;;;;4990494;28;20070;-89
2023/12/22 01:48:19;;;;;;;5.75;1.63;;;10.90;59.10;;;;;;4990246;28;20062;-89
2023/12/22 01:50:48;;;;;;;4.30;1.25;;;11.00;43.20;;;;;;4975208;28;20073;-90
2023/12/22 01:53:15;;;;;;;2.47;0.90;;;11.00;49.10;;;;;;4965558;28;20154;-87
2023/12/22 01:55:41;;;;;;;4.47;1.15;;;11.00;20.70;;;;;;4969818;28;20062;-88
2023/12/22 01:58:08;;;;;;;1.75;0.85;;;11.00;29.50;;;;;;4952360;28;20055;-87
2023/12/22 02:00:35;;;;;;;2.50;1.00;;;11.00;14.60;;;;;;4953713;28;20205;-88
2023/12/22 02:03:02;;;;;;;3.13;1.00;;;11.00;7.00;;;;;;4974869;28;20078;-87
2023/12/22 02:05:29;;;;;;;0.60;0.60;;;11.00;15.90;;;;;;4973375;28;20109;-88
2023/12/22 02:07:56;;;;;;;1.63;0.60;;;11.00;1.00;;;;;;4970946;28;20138;-88
2023/12/22 02:10:23;;;;;;;2.45;0.95;;;11.00;12.10;;;;;;4972195;28;20054;-88
2023/12/22 02:12:50;;;;;;;2.40;0.80;;;11.00;21.70;;;;;;4976330;28;20130;-88
2023/12/22 02:15:16;;;;;;;1.80;0.70;;;11.00;20.50;;;;;;4956933;28;20085;-89
2023/12/22 02:17:45;;;;;;;1.80;0.57;;;11.00;25.40;;;;;;4970109;28;20055;-89
2023/12/22 02:20:12;;;;;;;1.63;0.77;;;11.00;26.40;;;;;;4970407;28;20069;-89
2023/12/22 02:22:39;;;;;;;1.95;0.63;;;10.90;27.40;;;;;;4971287;28;20047;-89
2023/12/22 02:25:06;;;;;;;1.65;0.63;;;10.90;3.00;;;;;;4984834;28;20112;-88
2023/12/22 02:27:48;;;;;;;2.58;0.90;;;10.80;70.60;;;;;;4988794;28;20054;-89
2023/12/22 02:30:21;;;;;;;5.13;1.25;;;10.70;52.20;;;;;;4972153;28;20409;-89
2023/12/22 02:32:49;;;;;;;2.50;1.13;;;10.60;1.00;;;;;;4958049;28;20169;-90
2023/12/22 02:35:19;;;;;;;1.80;0.80;;;10.50;1.00;;;;;;4973498;28;20120;-88
2023/12/22 02:37:46;;;;;;;1.77;0.70;;;10.50;1.00;;;;;;4991973;28;20054;-88
2023/12/22 02:40:14;;;;;;;2.38;1.30;;;10.40;99.90;;;;;;4976314;28;20046;-88
2023/12/22 02:42:41;;;;;;;2.88;1.15;;;10.30;55.10;;;;;;4984136;28;20055;-88
2023/12/22 02:45:13;;;;;;;3.85;1.23;;;10.20;99.90;;;;;;4971399;28;20043;-87
2023/12/22 02:47:40;;;;;;;2.38;0.80;;;10.00;31.20;;;;;;4951611;28;20055;-87
2023/12/22 02:50:08;;;;;;;2.67;1.00;;;9.90;99.90;;;;;;4953570;28;20043;-87
2023/12/22 02:52:35;;;;;;;2.50;0.82;;;9.70;1.00;;;;;;4958675;28;20054;-89
2023/12/22 02:55:02;;;;;;;3.25;1.15;;;9.70;1.00;;;;;;4972352;28;20400;-88
2023/12/22 02:57:29;;;;;;;3.17;1.05;;;9.60;1.00;;;;;;4972487;28;20130;-88
2023/12/22 02:59:56;;;;;;;2.70;1.00;;;9.60;99.90;;;;;;4971782;28;20126;-88
2023/12/22 03:02:23;;;;;;;1.90;0.95;;;9.50;1.00;;;;;;4971589;28;20295;-88
2023/12/22 03:04:50;;;;;;;1.05;0.95;;;9.50;99.90;;;;;;4972972;28;20295;-90
2023/12/22 03:07:17;;;;;;;2.25;0.73;;;9.40;99.90;;;;;;4972798;28;20047;-86
2023/12/22 03:09:44;;;;;;;1.85;0.80;;;9.40;99.90;;;;;;4971261;28;20313;-87
2023/12/22 03:12:11;;;;;;;1.92;0.80;;;9.40;1.00;;;;;;4969389;28;20392;-87
2023/12/22 03:14:38;;;;;;;1.73;0.60;;;9.30;1.00;;;;;;4966875;28;20047;-87
2023/12/22 03:17:05;;;;;;;1.92;0.80;;;9.30;8.90;;;;;;4956880;28;20554;-87
2023/12/22 03:19:32;;;;;;;2.50;0.73;;;9.30;43.70;;;;;;4956071;28;20073;-87
2023/12/22 03:21:59;;;;;;;3.03;1.05;;;9.30;47.40;;;;;;4956212;28;20199;-89
2023/12/22 03:24:28;;;;;;;1.55;0.90;;;9.30;1.00;;;;;;4969551;28;20043;-90
2023/12/22 03:26:56;;;;;;;2.08;0.75;;;9.30;1.00;;;;;;4954011;28;20505;-91
2023/12/22 03:29:22;;;;;;;2.08;0.98;;;9.30;1.00;;;;;;4957413;28;20054;-91
2023/12/22 03:31:49;;;;;;;4.63;1.02;;;9.30;99.90;;;;;;4955603;28;20396;-87
2023/12/22 03:34:16;;;;;;;4.75;1.35;;;9.30;99.90;;;;;;4973977;28;20075;-89
2023/12/22 03:36:44;;;;;;;4.03;1.48;;;9.30;99.90;;;;;;4975807;28;20126;-89
2023/12/22 03:39:11;;;;;;;1.73;1.15;;;9.40;99.90;;;;;;4976003;28;20704;-90
2023/12/22 03:41:38;;;;;;;1.67;0.65;;;9.40;99.90;;;;;;4976198;28;20051;-87
2023/12/22 03:44:05;;;;;;;0.80;0.50;;;9.40;39.60;;;;;;4972476;28;20074;-87
2023/12/22 03:46:32;;;;;;;1.75;0.70;;;9.40;1.00;;;;;;4973500;28;20105;-85
2023/12/22 03:48:58;;;;;;;2.15;1.30;;;9.40;1.00;;;;;;4972171;28;20558;-85
2023/12/22 03:51:26;;;;;;;1.98;0.82;;;9.40;99.90;;;;;;4971415;28;20106;-86
2023/12/22 03:53:53;;;;;;;2.47;0.70;;;9.50;99.90;;;;;;4972651;28;20105;-86
2023/12/22 03:56:20;;;;;;;1.67;0.57;;;9.50;58.90;;;;;;4972301;28;20051;-85
2023/12/22 03:58:46;;;;;;;1.60;0.60;;;9.50;99.90;;;;;;4973261;28;20047;-86
2023/12/22 04:01:16;;;;;;;1.92;0.65;;;9.60;99.90;;;;;;4974308;28;20106;-84
2023/12/22 04:03:43;;;;;;;3.55;1.13;;;9.60;47.00;;;;;;4971106;28;20137;-84
2023/12/22 04:06:10;;;;;;;2.17;0.82;;;9.70;1.00;;;;;;4969966;28;20185;-84
2023/12/22 04:08:37;;;;;;;1.15;0.50;;;9.70;99.90;;;;;;4971310;28;20121;-86
2023/12/22 04:11:04;;;;;;;1.60;0.80;;;9.70;99.90;;;;;;4974025;28;20051;-85
2023/12/22 04:13:31;;;;;;;1.60;0.73;;;9.80;99.90;;;;;;4971762;28;20494;-86
2023/12/22 04:15:59;;;;;;;0.75;0.60;;;9.90;26.50;;;;;;4972628;28;20053;-87
2023/12/22 04:18:25;;;;;;;0.88;0.60;;;9.90;1.00;;;;;;4970591;28;20055;-88
2023/12/22 04:20:55;;;;;;;2.00;0.68;;;9.90;99.90;;;;;;4971847;28;20047;-87
2023/12/22 04:23:22;;;;;;;1.65;0.70;;;10.00;99.90;;;;;;4972744;28;20051;-87
2023/12/22 04:25:48;;;;;;;1.60;0.73;;;10.10;91.90;;;;;;4972047;28;20101;-87
2023/12/22 04:28:15;;;;;;;1.17;0.52;;;10.10;1.00;;;;;;4939783;28;20047;-87
2023/12/22 04:30:42;;;;;;;1.40;0.52;;;10.20;1.00;;;;;;4971348;28;20467;-88
2023/12/22 04:33:09;;;;;;;1.23;0.70;;;10.20;99.90;;;;;;4970660;28;20487;-87
2023/12/22 04:35:36;;;;;;;1.50;0.60;;;10.30;1.00;;;;;;4969509;28;20475;-87
2023/12/22 04:38:03;;;;;;;1.05;0.60;;;10.30;1.00;;;;;;4972400;28;20051;-87
2023/12/22 04:40:31;;;;;;;0.77;0.43;;;10.30;1.00;;;;;;4972794;28;20055;-86
2023/12/22 04:42:58;;;;;;;2.00;0.50;;;10.30;1.00;;;;;;4973156;28;20047;-86
2023/12/22 04:45:25;;;;;;;1.83;0.50;;;10.30;1.00;;;;;;4972840;28;20124;-87
2023/12/22 04:47:51;;;;;;;2.15;0.50;;;10.30;1.00;;;;;;4971957;28;20057;-86
2023/12/22 04:50:19;;;;;;;0.60;0.57;;;10.40;1.00;;;;;;4971229;28;20058;-86
2023/12/22 04:52:46;;;;;;;1.17;0.50;;;10.40;99.90;;;;;;4970935;28;20054;-86
2023/12/22 04:55:12;;;;;;;0.93;0.60;;;10.40;99.90;;;;;;4973232;28;20051;-87
2023/12/22 04:57:39;;;;;;;0.70;0.35;;;10.50;99.90;;;;;;4972313;28;20047;-87
2023/12/22 05:00:07;;;;;;;1.08;0.40;;;10.50;99.90;;;;;;4974904;28;20046;-86
2023/12/22 05:02:33;;;;;;;0.65;0.50;;;10.60;99.90;;;;;;4974984;28;20059;-87
2023/12/22 05:05:03;;;;;;;2.83;0.85;;;10.60;99.90;;;;;;4972547;28;20082;-86
2023/12/22 05:07:30;;;;;;;2.15;0.80;;;10.60;99.90;;;;;;4972283;28;20058;-87
2023/12/22 05:09:57;;;;;;;0.80;0.50;;;10.60;99.90;;;;;;4971767;28;20053;-86
2023/12/22 05:12:24;;;;;;;2.65;0.73;;;10.70;99.90;;;;;;4971792;28;20110;-87
2023/12/22 05:14:51;;;;;;;0.40;0.32;;;10.70;91.90;;;;;;4990030;28;20082;-87
2023/12/22 05:17:19;;;;;;;0.77;0.60;;;10.70;83.00;;;;;;4992308;28;20046;-88
2023/12/22 05:19:45;;;;;;;0.85;0.40;;;10.70;65.20;;;;;;4990970;28;20042;-87
2023/12/22 05:22:12;;;;;;;2.30;0.50;;;10.80;44.40;;;;;;4991116;28;20105;-88
2023/12/22 05:24:39;;;;;;;1.67;0.50;;;10.80;28.70;;;;;;4990055;28;20113;-87
2023/12/22 05:27:06;;;;;;;1.13;0.50;;;10.80;1.00;;;;;;4992892;28;20398;-88
2023/12/22 05:29:33;;;;;;;1.65;0.80;;;10.80;1.00;;;;;;4993337;28;20053;-88
2023/12/22 05:32:00;;;;;;;1.02;0.47;;;10.80;1.00;;;;;;4991309;28;20176;-87
2023/12/22 05:34:27;;;;;;;1.17;0.50;;;10.80;1.00;;;;;;4976240;28;20053;-88
2023/12/22 05:36:54;;;;;;;1.35;0.47;;;10.80;1.00;;;;;;4972959;28;20042;-88
2023/12/22 05:39:21;;;;;;;0.85;0.40;;;10.80;1.00;;;;;;4971136;28;20067;-87
2023/12/22 05:41:48;;;;;;;0.77;0.40;;;10.80;1.00;;;;;;4972054;28;20046;-86
2023/12/22 05:44:15;;;;;;;1.85;0.60;;;10.80;1.00;;;;;;4971959;28;20121;-87
2023/12/22 05:46:41;;;;;;;0.38;0.38;;;10.90;1.00;;;;;;4970651;28;20517;-86
2023/12/22 05:49:08;;;;;;;0.45;0.40;;;10.90;1.00;;;;;;4958128;28;20055;-86
2023/12/22 05:51:44;;;;;;;0.73;0.30;;;10.80;36.40;;;;;;4966499;28;20738;-84
2023/12/22 05:54:12;;;;;;;1.10;0.82;;;10.80;99.90;;;;;;4968578;28;20058;-86
2023/12/22 05:56:39;;;;;;;1.05;0.50;;;10.70;1.00;;;;;;4970058;28;20162;-87
2023/12/22 05:59:06;;;;;;;0.95;0.50;;;10.60;99.90;;;;;;4952466;28;20058;-86
2023/12/22 06:01:33;;;;;;;1.60;0.30;;;10.40;1.00;;;;;;4951833;28;20141;-86
2023/12/22 06:04:01;;;;;;;0.73;0.52;;;10.30;1.00;;;;;;4963740;28;20043;-88
2023/12/22 06:06:27;;;;;;;0.38;0.32;;;10.30;99.90;;;;;;4968435;28;20046;-88
2023/12/22 06:08:54;;;;;;;0.57;0.30;;;10.20;99.90;;;;;;4969383;28;20046;-86
2023/12/22 06:11:22;;;;;;;0.38;0.38;;;10.20;1.00;;;;;;4969866;28;20078;-87
2023/12/22 06:13:50;;;;;;;0.38;0.30;;;10.20;99.90;;;;;;4982483;28;20058;-87
2023/12/22 06:16:18;;;;;;;0.28;0.28;;;10.10;99.90;;;;;;4975692;28;20057;-87
2023/12/22 06:18:45;;;;;;;0.20;0.20;;;10.10;99.90;;;;;;4968606;28;20042;-86
2023/12/22 06:21:12;;;;;;;0.38;0.32;;;10.10;1.00;;;;;;4967962;28;20047;-87
2023/12/22 06:23:39;;;;;;;1.33;0.32;;;10.10;1.00;;;;;;4966509;28;20047;-87
2023/12/22 06:26:12;;;;;;;0.43;0.30;;;10.10;14.30;;;;;;4950487;28;20054;-88
2023/12/22 06:28:39;;;;;;;0.93;0.43;;;10.10;1.00;;;;;;4961644;28;20305;-91
2023/12/22 06:31:08;;;;;;;1.73;0.70;;;10.10;1.00;;;;;;4969416;28;20130;-90
2023/12/22 06:33:35;;;;;;;1.08;0.50;;;10.10;1.00;;;;;;4972199;28;20557;-89
2023/12/22 06:36:02;;;;;;;0.40;0.30;;;10.10;1.00;;;;;;4970316;28;20051;-89
2023/12/22 06:38:31;;;;;;;0.85;0.40;;;10.10;1.00;;;;;;4969419;28;20058;-83
2023/12/22 06:40:57;;;;;;;0.88;0.50;;;10.10;1.00;;;;;;4964357;28;20051;-86
2023/12/22 06:43:24;;;;;;;0.68;0.40;;;10.10;1.00;;;;;;4976761;28;20117;-87
2023/12/22 06:45:54;;;;;;;1.38;0.70;;;10.10;1.00;;;;;;4962229;28;20078;-88
2023/12/22 06:48:21;;;;;;;0.50;0.40;;;10.10;1.00;;;;;;4968049;28;20058;-89
2023/12/22 06:50:49;;;;;;;0.68;0.30;;;10.10;1.00;;;;;;4971865;28;20078;-89
2023/12/22 06:53:15;;;;;;;1.13;0.40;;;10.10;1.00;;;;;;4970807;28;20047;-88
2023/12/22 06:55:51;;;;;;;0.57;0.43;;;10.10;1.00;;;;;;4970682;28;20047;-88
2023/12/22 06:58:21;;;;;;;1.35;0.38;;;10.10;1.00;;;;;;4968957;28;20062;-88
2023/12/22 07:00:48;;;;;;;1.23;0.40;;;10.20;1.00;;;;;;4933087;29;20051;-88
2023/12/22 07:03:17;;;;;;;0.43;0.30;;;10.20;1.00;;;;;;4942792;28;20051;-89
2023/12/22 07:05:44;;;;;;;0.77;0.57;;;10.20;99.90;;;;;;4970199;28;20105;-87
2023/12/22 07:08:12;;;;;;;0.73;0.57;;;10.20;1.00;;;;;;4955234;28;20121;-88
2023/12/22 07:10:39;;;;;;;1.20;0.50;;;10.20;1.00;;;;;;4973250;28;20042;-88
2023/12/22 07:13:06;;;;;;;0.40;0.35;;;10.30;99.90;;;;;;4973994;28;20110;-87
2023/12/22 07:15:33;;;;;;;1.17;0.60;;;10.30;99.90;;;;;;4972654;28;20055;-89
2023/12/22 07:18:01;;;;;;;1.00;0.52;;;10.30;1.00;;;;;;4970297;28;20486;-88
2023/12/22 07:20:28;;;;;;;1.15;0.50;;;10.30;99.90;;;;;;4971685;28;20062;-89
2023/12/22 07:22:57;;;;;;;0.77;0.30;;;10.30;99.90;;;;;;4954352;28;20110;-88
2023/12/22 07:25:24;;;;;;;2.78;0.40;;;10.30;99.90;;;;;;4974609;28;20221;-88
2023/12/22 07:27:51;;;;;;;1.40;0.40;;;10.40;35.90;;;;;;4970283;28;20061;-88
2023/12/22 07:30:19;;;;;;;1.42;0.50;;;10.30;1.00;;;;;;4954934;28;20393;-87
2023/12/22 07:32:51;;;;;;;1.02;0.50;;;10.30;99.90;;;;;;4967983;28;20065;-88
2023/12/22 07:35:19;;;;;;;1.20;0.50;;;10.30;99.90;;;;;;4971044;28;20059;-88
2023/12/22 07:37:46;;;;;;;2.67;0.80;;;10.30;99.90;;;;;;4953689;28;20349;-87
2023/12/22 07:40:13;;;;;;;1.27;0.52;;;10.30;1.00;;;;;;4953910;28;20126;-88
2023/12/22 07:42:44;;;;;;;0.55;0.40;;;10.40;1.00;;;;;;4971825;28;20055;-89
2023/12/22 07:45:10;;;;;;;1.38;0.50;;;10.40;99.90;;;;;;4964443;28;20041;-87
2023/12/22 07:47:37;;;;;;;0.50;0.32;;;10.40;1.00;;;;;;4972030;28;20093;-87
2023/12/22 07:50:08;;;;;;;0.50;0.30;;;10.40;1.00;;;;;;4972820;28;20051;-87
2023/12/22 07:52:38;;;;;;;0.55;0.40;;;10.40;1.00;;;;;;4957192;28;20046;-86
2023/12/22 07:55:10;;;;;;;0.83;0.50;;;10.40;13.80;;;;;;4945960;28;20089;-88
2023/12/22 07:57:38;;;;;;;0.80;0.40;;;10.40;99.90;;;;;;4955158;28;20066;-88
2023/12/22 08:00:06;;;;;;;1.30;0.57;;;10.40;99.90;;;;;;4950717;28;20588;-88
2023/12/22 08:02:33;;;;;;;0.55;0.50;;;10.30;54.60;;;;;;4939621;28;20050;-87
2023/12/22 08:05:00;;;;;;;0.95;0.50;;;10.40;1.00;;;;;;4967474;28;20050;-87
2023/12/22 08:07:27;;;;;;;1.25;0.40;;;10.40;99.90;;;;;;4952091;28;20050;-87
2023/12/22 08:09:54;;;;;;;0.80;0.38;;;10.40;99.90;;;;;;4967836;28;20146;-85
2023/12/22 08:12:20;;;;;;;0.52;0.50;;;10.40;99.90;;;;;;4951379;28;20447;-84
2023/12/22 08:14:47;;;;;;;0.10;0.10;;;10.50;99.90;;;;;;4967484;28;20046;-86
2023/12/22 08:17:15;;;;;;;0.85;0.30;;;10.50;1.00;;;;;;4952300;28;20078;-86
2023/12/22 08:19:42;;;;;;;0.82;0.40;;;10.50;99.90;;;;;;4936046;28;20054;-85
2023/12/22 08:22:13;;;;;;;0.20;0.20;;;10.50;99.90;;;;;;4968428;28;20046;-84
2023/12/22 08:24:41;;;;;;;1.20;0.40;;;10.60;99.90;;;;;;4964123;28;20406;-86
2023/12/22 08:27:09;;;;;;;1.10;0.50;;;10.60;99.90;;;;;;4960111;28;20042;-85
2023/12/22 08:29:35;;;;;;;0.35;0.30;;;10.60;99.90;;;;;;4975722;28;20050;-83
2023/12/22 08:32:03;;;;;;;0.30;0.28;;;10.60;99.90;;;;;;4984764;28;20273;-85
2023/12/22 08:34:30;;;;;;;0.52;0.28;;;10.70;76.70;;;;;;4967166;28;20389;-85
2023/12/22 08:36:56;;;;;;;1.20;0.30;;;10.70;17.30;;;;;;4968437;28;20062;-85
2023/12/22 08:39:26;;;;;;;1.60;0.40;;;10.70;1.00;;;;;;4967807;28;20054;-85
2023/12/22 08:41:53;;;;;;;0.65;0.60;;;10.70;1.00;;;;;;4969358;28;20069;-84
2023/12/22 08:44:20;;;;;;;1.58;0.40;;;10.70;1.00;;;;;;4971424;28;20058;-84
2023/12/22 08:46:47;;;;;;;1.20;0.50;;;10.80;99.90;;;;;;4951849;28;20066;-84
2023/12/22 08:49:14;;;;;;;0.55;0.30;;;10.80;99.90;;;;;;4968323;28;20114;-86
2023/12/22 08:51:42;;;;;;;1.23;0.40;;;10.80;99.90;;;;;;4975885;28;20061;-92
2023/12/22 08:54:10;;;;;;;0.82;0.30;;;10.90;99.90;;;;;;4984308;28;20050;-94
2023/12/22 08:56:39;;;;;;;0.50;0.35;;;10.90;99.90;;;;;;4973939;28;20054;-95
2023/12/22 08:59:08;;;;;;;1.75;0.30;;;11.00;99.90;;;;;;4958444;28;20402;-94
2023/12/22 09:01:42;;;;;;;1.20;0.40;;;11.00;99.90;;;;;;4958999;28;20510;-95
2023/12/22 09:04:11;;;;;;;1.38;0.40;;;11.00;99.90;;;;;;4988275;28;20062;-94
2023/12/22 09:06:39;;;;;;;0.85;0.40;;;11.10;99.90;;;;;;4977899;28;20050;-94
2023/12/22 09:09:07;;;;;;;0.40;0.30;;;11.10;99.90;;;;;;4993494;28;20058;-94
2023/12/22 09:11:34;;;;;;;1.70;0.40;;;11.20;99.90;;;;;;4976480;28;20066;-85
2023/12/22 09:14:05;;;;;;;3.47;0.65;;;11.20;99.90;;;;;;4961107;28;20047;-92
2023/12/22 09:16:34;;;;;;;1.38;0.60;;;11.20;99.90;;;;;;4957518;28;20105;-91
2023/12/22 09:19:01;;;;;;;1.75;0.88;;;11.30;99.90;;;;;;4943322;28;20043;-92
2023/12/22 09:21:29;;;;;;;1.13;0.65;;;11.20;99.90;;;;;;4970560;28;20110;-89
2023/12/22 09:23:56;;;;;;;1.02;0.50;;;11.30;99.90;;;;;;4980619;28;20050;-90
2023/12/22 09:26:24;;;;;;;0.65;0.50;;;11.30;99.90;;;;;;4974005;28;20285;-90
2023/12/22 09:28:55;;;;;;;1.20;0.50;;;11.40;99.90;;;;;;4974461;28;20081;-93
2023/12/22 09:31:22;;;;;;;1.65;0.65;;;11.40;99.90;;;;;;4973479;28;20080;-91
2023/12/22 09:33:51;;;;;;;3.28;0.80;;;11.40;99.90;;;;;;4944856;28;20059;-92
2023/12/22 09:36:19;;;;;;;0.75;0.50;;;11.50;99.90;;;;;;4973186;28;20055;-90
2023/12/22 09:38:46;;;;;;;1.25;0.55;;;11.50;99.90;;;;;;4976650;28;20058;-90
2023/12/22 09:41:13;;;;;;;1.23;0.47;;;11.60;99.90;;;;;;4991444;28;20046;-92
2023/12/22 09:43:40;;;;;;;0.82;0.60;;;11.70;99.90;;;;;;4967640;28;20129;-91
2023/12/22 09:46:08;;;;;;;1.05;0.40;;;11.70;99.90;;;;;;4960318;28;20214;-91
2023/12/22 09:48:35;;;;;;;3.03;1.02;;;11.80;99.90;;;;;;4971007;28;20070;-91
2023/12/22 09:51:03;;;;;;;0.70;0.60;;;11.80;99.90;;;;;;4954623;28;20047;-90
2023/12/22 09:53:32;;;;;;;0.60;0.30;;;11.90;99.90;;;;;;4970924;28;20178;-92
2023/12/22 09:55:59;;;;;;;0.82;0.50;;;11.90;99.90;;;;;;4976776;28;20061;-90
2023/12/22 09:58:27;;;;;;;0.68;0.30;;;11.90;99.90;;;;;;4961420;28;20644;-91
2023/12/22 10:00:55;;;;;;;0.35;0.25;;;11.80;99.90;;;;;;4990972;28;20060;-86
2023/12/22 10:03:22;;;;;;;0.75;0.40;;;11.80;99.90;;;;;;4961989;28;20080;-82
2023/12/22 10:05:49;;;;;;;0.90;0.50;;;11.80;99.90;;;;;;4961976;28;20082;-84
2023/12/22 10:08:16;;;;;;;2.05;0.40;;;11.80;99.90;;;;;;4961941;28;20154;-83
2023/12/22 10:10:43;;;;;;;1.02;0.65;;;11.80;99.90;;;;;;4963849;28;20233;-82
2023/12/22 10:13:10;;;;;;;2.15;0.82;;;11.80;99.90;;;;;;4963497;28;20050;-82
2023/12/22 10:15:40;;;;;;;1.45;0.60;;;11.90;99.90;;;;;;4963755;28;20149;-82
2023/12/22 10:18:07;;;;;;;1.55;0.60;;;11.90;99.90;;;;;;4943793;28;20130;-83
2023/12/22 10:20:35;;;;;;;1.25;0.63;;;12.00;99.90;;;;;;4945022;28;20125;-82
2023/12/22 10:23:02;;;;;;;0.98;0.50;;;12.00;99.90;;;;;;4960486;28;20133;-84
2023/12/22 10:25:35;;;;;;;0.75;0.63;;;12.00;99.90;;;;;;4961159;28;20058;-80
2023/12/22 10:28:02;;;;;;;1.30;0.65;;;12.00;99.90;;;;;;4946230;28;20058;-82
2023/12/22 10:30:29;;;;;;;2.30;0.68;;;12.00;99.90;;;;;;4965852;28;20078;-83
2023/12/22 10:32:56;;;;;;;1.60;0.68;;;12.10;99.90;;;;;;4964115;28;20163;-83
2023/12/22 10:35:23;;;;;;;1.20;0.60;;;12.10;99.90;;;;;;4963176;28;20317;-82
2023/12/22 10:37:53;;;;;;;2.90;0.60;;;12.10;99.90;;;;;;4949106;28;20051;-82
2023/12/22 10:40:21;;;;;;;1.85;0.88;;;12.10;99.90;;;;;;4987726;28;20119;-83
2023/12/22 10:42:48;;;;;;;1.35;0.80;;;12.00;99.90;;;;;;4967281;28;20137;-82
2023/12/22 10:45:17;;;;;;;1.25;0.63;;;12.10;99.90;;;;;;4952169;28;20051;-82
2023/12/22 10:47:45;;;;;;;2.25;0.95;;;12.00;99.90;;;;;;4951782;28;20399;-83
2023/12/22 10:50:14;;;;;;;1.20;0.60;;;12.10;99.90;;;;;;4951209;28;20054;-81
2023/12/22 10:52:40;;;;;;;1.90;0.90;;;12.10;99.90;;;;;;4963579;28;20146;-82
2023/12/22 10:55:08;;;;;;;2.33;0.60;;;12.10;99.90;;;;;;4965607;28;20151;-79
2023/12/22 10:57:37;;;;;;;2.92;0.82;;;12.10;99.90;;;;;;4934739;28;20372;-80
2023/12/22 11:00:07;;;;;;;2.28;0.70;;;12.10;99.90;;;;;;4968976;28;20137;-79
2023/12/22 11:02:34;;;;;;;1.63;0.63;;;12.10;99.90;;;;;;4949932;28;20231;-79
2023/12/22 11:05:05;;;;;;;1.75;0.70;;;12.10;99.90;;;;;;4950442;28;20085;-79
2023/12/22 11:07:35;;;;;;;1.05;0.75;;;12.10;99.90;;;;;;4950842;28;20634;-79
2023/12/22 11:10:03;;;;;;;1.58;0.60;;;12.10;99.90;;;;;;4964585;28;20073;-79
2023/12/22 11:12:33;;;;;;;1.60;0.60;;;12.10;99.90;;;;;;4950538;28;20100;-79
2023/12/22 11:15:03;;;;;;;2.78;1.00;;;12.10;99.90;;;;;;4966858;28;20054;-79
2023/12/22 11:17:30;;;;;;;2.42;0.90;;;12.10;99.90;;;;;;4949115;28;20488;-79
2023/12/22 11:19:57;;;;;;;2.30;0.90;;;12.10;99.90;;;;;;4963504;28;20047;-79
2023/12/22 11:22:24;;;;;;;1.90;0.75;;;12.10;99.90;;;;;;4962924;28;20055;-79
2023/12/22 11:24:51;;;;;;;1.95;0.88;;;12.10;99.90;;;;;;4947071;28;20051;-79
2023/12/22 11:27:18;;;;;;;3.13;1.20;;;12.10;99.90;;;;;;4961858;28;20507;-79
2023/12/22 11:29:49;;;;;;;3.58;1.02;;;12.20;99.90;;;;;;4933652;28;20051;-79
2023/12/22 11:32:17;;;;;;;4.82;1.50;;;12.20;99.90;;;;;;4946653;28;20062;-80
2023/12/22 11:34:44;;;;;;;3.15;1.00;;;12.30;99.90;;;;;;4963962;28;20106;-80
2023/12/22 11:37:13;;;;;;;3.28;1.45;;;12.30;99.90;;;;;;4966878;28;20494;-80
2023/12/22 11:39:43;;;;;;;2.63;1.00;;;12.30;99.90;;;;;;4964173;28;20218;-81
2023/12/22 11:42:17;;;;;;;2.70;1.30;;;12.30;99.90;;;;;;4967169;28;20078;-80
2023/12/22 11:44:44;;;;;;;2.17;1.00;;;12.40;99.90;;;;;;4967600;28;20496;-80
2023/12/22 11:47:13;;;;;;;2.17;0.90;;;12.40;99.90;;;;;;4966144;28;20121;-82
2023/12/22 11:49:40;;;;;;;2.72;1.27;;;12.40;99.90;;;;;;4948777;28;20072;-81
2023/12/22 11:52:14;;;;;;;2.80;1.10;;;12.40;99.90;;;;;;4949935;28;20073;-80
2023/12/22 11:54:49;;;;;;;3.40;1.40;;;12.50;99.90;;;;;;4950657;28;20050;-81
2023/12/22 11:57:28;;;;;;;4.15;1.92;;;12.50;99.90;;;;;;4966910;28;20098;-79
2023/12/22 11:59:55;;;;;;;1.75;1.15;;;12.50;99.90;;;;;;4962089;28;20070;-79
2023/12/22 12:02:22;;;;;;;1.92;0.90;;;12.60;99.90;;;;;;4948603;28;20059;-79
2023/12/22 12:04:50;;;;;;;3.72;1.63;;;12.60;99.90;;;;;;4932351;28;20047;-79
2023/12/22 12:07:40;;;;;;;3.35;1.25;;;12.60;99.90;;;;;;4965800;28;20478;-80
2023/12/22 12:10:08;;;;;;;3.13;0.80;;;12.60;99.90;;;;;;4967151;28;20073;-81
2023/12/22 12:12:36;;;;;;;3.17;1.00;;;12.60;99.90;;;;;;4966452;28;20110;-80
2023/12/22 12:15:35;;;;;;;1.30;0.82;;;12.70;99.90;;;;;;4966441;28;20054;-80
2023/12/22 12:18:02;;;;;;;2.83;1.08;;;12.70;99.90;;;;;;4950656;28;20122;-81
2023/12/22 12:20:29;;;;;;;2.05;0.95;;;12.70;99.90;;;;;;4965683;28;20051;-80
2023/12/22 12:22:56;;;;;;;2.08;0.98;;;12.70;99.90;;;;;;4932669;28;20238;-81
2023/12/22 12:25:26;;;;;;;2.10;0.70;;;12.70;99.90;;;;;;4946155;28;20059;-80
2023/12/22 12:28:05;;;;;;;1.38;0.73;;;12.70;99.90;;;;;;4963467;28;20134;-80
2023/12/22 12:30:33;;;;;;;1.45;0.80;;;12.70;99.90;;;;;;4947299;28;20146;-80
2023/12/22 12:33:06;;;;;;;1.50;0.90;;;12.70;99.90;;;;;;4932372;28;20051;-79
2023/12/22 12:35:34;;;;;;;2.30;1.00;;;12.60;99.90;;;;;;4930334;29;20047;-79
2023/12/22 12:38:03;;;;;;;2.47;0.60;;;12.60;99.90;;;;;;4940028;28;20770;-78
2023/12/22 12:40:32;;;;;;;1.50;0.70;;;12.70;99.90;;;;;;4949669;28;20140;-79
2023/12/22 12:42:59;;;;;;;1.60;0.80;;;12.70;1.00;;;;;;4965282;28;20274;-77
2023/12/22 12:45:26;;;;;;;2.55;1.10;;;12.70;99.90;;;;;;4937883;28;20316;-81
2023/12/22 12:48:00;;;;;;;2.58;0.65;;;12.70;99.90;;;;;;4962635;28;20043;-80
2023/12/22 12:50:31;;;;;;;2.00;1.02;;;12.70;99.90;;;;;;4962845;28;20082;-79
2023/12/22 12:52:58;;;;;;;1.42;0.60;;;12.70;99.90;;;;;;4964295;28;20406;-80